sensor_id;sensor_type;location;lat;lon;timestamp;P1;durP1;ratioP1;P2;durP2;ratioP2
8849;SDS011;5638;50.860;4.698;2022-10-16T00:01:25;1.20;;;1.00;;
8849;SDS011;5638;50.860;4.698;2022-10-16T00:03:54;1.10;;;1.00;;
8849;SDS011;5638;50.860;4.698;2022-10-16T00:06:22;1.60;;;1.00;;
8849;SDS011;5638;50.860;4.698;2022-10-16T00:08:49;3.57;;;1.20;;
8849;SDS011;5638;50.860;4.698;2022-10-16T00:11:20;1.60;;;1.20;;
8849;SDS011;5638;50.860;4.698;2022-10-16T00:13:49;1.10;;;0.90;;
8849;SDS011;5638;50.860;4.698;2022-10-16T00:16:17;1.87;;;1.23;;
8849;SDS011;5638;50.860;4.698;2022-10-16T00:18:44;3.73;;;1.27;;
8849;SDS011;5638;50.860;4.698;2022-10-16T00:21:11;1.80;;;1.10;;
8849;SDS011;5638;50.860;4.698;2022-10-16T00:23:40;1.37;;;1.10;;
8849;SDS011;5638;50.860;4.698;2022-10-16T00:26:08;3.80;;;1.20;;
8849;SDS011;5638;50.860;4.698;2022-10-16T00:28:38;1.07;;;0.90;;
8849;SDS011;5638;50.860;4.698;2022-10-16T00:31:05;3.00;;;1.10;;
8849;SDS011;5638;50.860;4.698;2022-10-16T00:33:33;1.20;;;1.07;;
8849;SDS011;5638;50.860;4.698;2022-10-16T00:36:01;2.07;;;1.10;;
8849;SDS011;5638;50.860;4.698;2022-10-16T00:38:29;3.13;;;1.00;;
8849;SDS011;5638;50.860;4.698;2022-10-16T00:40:55;3.40;;;1.30;;
8849;SDS011;5638;50.860;4.698;2022-10-16T00:43:38;2.27;;;1.20;;
8849;SDS011;5638;50.860;4.698;2022-10-16T00:48:52;1.97;;;1.40;;
8849;SDS011;5638;50.860;4.698;2022-10-16T00:51:36;2.37;;;1.00;;
8849;SDS011;5638;50.860;4.698;2022-10-16T00:54:39;2.30;;;1.13;;
8849;SDS011;5638;50.860;4.698;2022-10-16T00:57:03;2.20;;;1.03;;
8849;SDS011;5638;50.860;4.698;2022-10-16T00:59:35;1.17;;;1.07;;
8849;SDS011;5638;50.860;4.698;2022-10-16T01:02:05;1.20;;;1.10;;
8849;SDS011;5638;50.860;4.698;2022-10-16T01:04:35;1.50;;;1.00;;
8849;SDS011;5638;50.860;4.698;2022-10-16T01:07:30;1.10;;;0.90;;
8849;SDS011;5638;50.860;4.698;2022-10-16T01:18:32;1.37;;;1.13;;
8849;SDS011;5638;50.860;4.698;2022-10-16T01:32:05;1.60;;;1.10;;
8849;SDS011;5638;50.860;4.698;2022-10-16T01:34:55;1.67;;;1.20;;
8849;SDS011;5638;50.860;4.698;2022-10-16T01:41:16;3.00;;;1.17;;
8849;SDS011;5638;50.860;4.698;2022-10-16T01:44:11;4.67;;;1.10;;
8849;SDS011;5638;50.860;4.698;2022-10-16T01:46:58;1.30;;;0.90;;
8849;SDS011;5638;50.860;4.698;2022-10-16T01:49:26;1.33;;;1.00;;
8849;SDS011;5638;50.860;4.698;2022-10-16T01:52:00;1.53;;;1.10;;
8849;SDS011;5638;50.860;4.698;2022-10-16T01:54:33;1.17;;;1.00;;
8849;SDS011;5638;50.860;4.698;2022-10-16T01:57:04;1.67;;;1.10;;
8849;SDS011;5638;50.860;4.698;2022-10-16T01:59:35;1.93;;;1.30;;
8849;SDS011;5638;50.860;4.698;2022-10-16T02:02:09;3.97;;;1.10;;
8849;SDS011;5638;50.860;4.698;2022-10-16T02:04:39;1.80;;;1.23;;
8849;SDS011;5638;50.860;4.698;2022-10-16T02:07:12;1.60;;;1.10;;
8849;SDS011;5638;50.860;4.698;2022-10-16T02:09:39;3.77;;;1.20;;
8849;SDS011;5638;50.860;4.698;2022-10-16T02:12:07;1.90;;;1.30;;
8849;SDS011;5638;50.860;4.698;2022-10-16T02:15:04;1.67;;;1.20;;
8849;SDS011;5638;50.860;4.698;2022-10-16T02:17:31;1.50;;;1.13;;
8849;SDS011;5638;50.860;4.698;2022-10-16T02:19:57;2.47;;;1.10;;
8849;SDS011;5638;50.860;4.698;2022-10-16T02:22:43;2.50;;;1.10;;
8849;SDS011;5638;50.860;4.698;2022-10-16T02:25:18;2.70;;;1.23;;
8849;SDS011;5638;50.860;4.698;2022-10-16T02:28:03;2.03;;;1.53;;
8849;SDS011;5638;50.860;4.698;2022-10-16T02:30:41;1.30;;;1.20;;
8849;SDS011;5638;50.860;4.698;2022-10-16T02:33:14;1.43;;;1.07;;
8849;SDS011;5638;50.860;4.698;2022-10-16T02:35:43;2.07;;;1.17;;
8849;SDS011;5638;50.860;4.698;2022-10-16T02:38:13;1.87;;;1.27;;
8849;SDS011;5638;50.860;4.698;2022-10-16T02:40:42;1.27;;;1.10;;
8849;SDS011;5638;50.860;4.698;2022-10-16T02:43:09;1.23;;;1.13;;
8849;SDS011;5638;50.860;4.698;2022-10-16T02:45:36;1.80;;;1.47;;
8849;SDS011;5638;50.860;4.698;2022-10-16T02:48:02;4.03;;;1.30;;
8849;SDS011;5638;50.860;4.698;2022-10-16T02:50:28;1.23;;;1.13;;
8849;SDS011;5638;50.860;4.698;2022-10-16T02:52:54;1.20;;;1.00;;
8849;SDS011;5638;50.860;4.698;2022-10-16T02:55:20;2.23;;;1.30;;
8849;SDS011;5638;50.860;4.698;2022-10-16T02:57:46;1.70;;;1.30;;
8849;SDS011;5638;50.860;4.698;2022-10-16T03:00:12;5.80;;;1.43;;
8849;SDS011;5638;50.860;4.698;2022-10-16T03:02:41;1.57;;;1.40;;
8849;SDS011;5638;50.860;4.698;2022-10-16T03:05:07;3.00;;;1.10;;
8849;SDS011;5638;50.860;4.698;2022-10-16T03:07:34;1.70;;;1.20;;
8849;SDS011;5638;50.860;4.698;2022-10-16T03:10:00;1.77;;;1.20;;
8849;SDS011;5638;50.860;4.698;2022-10-16T03:12:26;1.67;;;1.20;;
8849;SDS011;5638;50.860;4.698;2022-10-16T03:14:53;3.17;;;1.30;;
8849;SDS011;5638;50.860;4.698;2022-10-16T03:17:21;1.60;;;1.07;;
8849;SDS011;5638;50.860;4.698;2022-10-16T03:19:48;1.43;;;1.30;;
8849;SDS011;5638;50.860;4.698;2022-10-16T03:22:14;1.70;;;1.07;;
8849;SDS011;5638;50.860;4.698;2022-10-16T03:24:40;1.20;;;1.10;;
8849;SDS011;5638;50.860;4.698;2022-10-16T03:27:06;2.37;;;1.30;;
8849;SDS011;5638;50.860;4.698;2022-10-16T03:29:32;1.60;;;1.20;;
8849;SDS011;5638;50.860;4.698;2022-10-16T03:31:58;1.80;;;1.30;;
8849;SDS011;5638;50.860;4.698;2022-10-16T03:34:25;2.63;;;1.10;;
8849;SDS011;5638;50.860;4.698;2022-10-16T03:36:51;3.10;;;1.37;;
8849;SDS011;5638;50.860;4.698;2022-10-16T03:39:18;2.40;;;1.20;;
8849;SDS011;5638;50.860;4.698;2022-10-16T03:41:44;1.57;;;1.30;;
8849;SDS011;5638;50.860;4.698;2022-10-16T03:44:11;1.90;;;1.33;;
8849;SDS011;5638;50.860;4.698;2022-10-16T03:46:38;3.10;;;1.20;;
8849;SDS011;5638;50.860;4.698;2022-10-16T03:49:04;1.57;;;1.30;;
8849;SDS011;5638;50.860;4.698;2022-10-16T03:51:30;1.40;;;1.30;;
8849;SDS011;5638;50.860;4.698;2022-10-16T03:53:56;1.60;;;1.37;;
8849;SDS011;5638;50.860;4.698;2022-10-16T03:56:22;1.50;;;1.20;;
8849;SDS011;5638;50.860;4.698;2022-10-16T03:58:47;5.03;;;1.30;;
8849;SDS011;5638;50.860;4.698;2022-10-16T04:01:13;11.10;;;2.00;;
8849;SDS011;5638;50.860;4.698;2022-10-16T04:03:39;2.73;;;1.30;;
8849;SDS011;5638;50.860;4.698;2022-10-16T04:06:05;3.07;;;1.27;;
8849;SDS011;5638;50.860;4.698;2022-10-16T04:08:31;2.13;;;1.30;;
8849;SDS011;5638;50.860;4.698;2022-10-16T04:11:00;3.77;;;1.40;;
8849;SDS011;5638;50.860;4.698;2022-10-16T04:13:26;3.43;;;1.20;;
8849;SDS011;5638;50.860;4.698;2022-10-16T04:15:52;2.80;;;1.60;;
8849;SDS011;5638;50.860;4.698;2022-10-16T04:18:18;1.40;;;1.30;;
8849;SDS011;5638;50.860;4.698;2022-10-16T04:20:43;1.73;;;1.23;;
8849;SDS011;5638;50.860;4.698;2022-10-16T04:23:09;4.20;;;1.30;;
8849;SDS011;5638;50.860;4.698;2022-10-16T04:25:35;3.43;;;1.47;;
8849;SDS011;5638;50.860;4.698;2022-10-16T04:28:01;3.83;;;1.40;;
8849;SDS011;5638;50.860;4.698;2022-10-16T04:30:27;2.90;;;1.40;;
8849;SDS011;5638;50.860;4.698;2022-10-16T04:32:53;9.70;;;1.47;;
8849;SDS011;5638;50.860;4.698;2022-10-16T04:35:19;2.10;;;1.40;;
8849;SDS011;5638;50.860;4.698;2022-10-16T04:37:46;1.30;;;1.20;;
8849;SDS011;5638;50.860;4.698;2022-10-16T04:40:12;1.50;;;1.40;;
8849;SDS011;5638;50.860;4.698;2022-10-16T04:42:39;1.70;;;1.57;;
8849;SDS011;5638;50.860;4.698;2022-10-16T04:45:05;1.50;;;1.40;;
8849;SDS011;5638;50.860;4.698;2022-10-16T04:47:33;2.50;;;1.40;;
8849;SDS011;5638;50.860;4.698;2022-10-16T04:49:59;1.30;;;1.20;;
8849;SDS011;5638;50.860;4.698;2022-10-16T04:52:26;3.73;;;1.40;;
8849;SDS011;5638;50.860;4.698;2022-10-16T04:54:52;3.30;;;1.50;;
8849;SDS011;5638;50.860;4.698;2022-10-16T04:57:19;1.77;;;1.40;;
8849;SDS011;5638;50.860;4.698;2022-10-16T04:59:44;1.90;;;1.57;;
8849;SDS011;5638;50.860;4.698;2022-10-16T05:02:10;3.50;;;1.43;;
8849;SDS011;5638;50.860;4.698;2022-10-16T05:04:36;1.93;;;1.50;;
8849;SDS011;5638;50.860;4.698;2022-10-16T05:07:02;4.33;;;1.40;;
8849;SDS011;5638;50.860;4.698;2022-10-16T05:09:28;2.37;;;1.53;;
8849;SDS011;5638;50.860;4.698;2022-10-16T05:11:53;2.00;;;1.40;;
8849;SDS011;5638;50.860;4.698;2022-10-16T05:14:19;5.63;;;1.80;;
8849;SDS011;5638;50.860;4.698;2022-10-16T05:16:45;1.77;;;1.30;;
8849;SDS011;5638;50.860;4.698;2022-10-16T05:19:13;1.73;;;1.20;;
8849;SDS011;5638;50.860;4.698;2022-10-16T05:21:38;2.70;;;1.40;;
8849;SDS011;5638;50.860;4.698;2022-10-16T05:24:07;2.40;;;1.50;;
8849;SDS011;5638;50.860;4.698;2022-10-16T05:26:34;3.83;;;1.70;;
8849;SDS011;5638;50.860;4.698;2022-10-16T05:29:00;2.73;;;1.50;;
8849;SDS011;5638;50.860;4.698;2022-10-16T05:31:26;4.00;;;1.40;;
8849;SDS011;5638;50.860;4.698;2022-10-16T05:33:52;2.83;;;1.77;;
8849;SDS011;5638;50.860;4.698;2022-10-16T05:36:23;2.17;;;1.60;;
8849;SDS011;5638;50.860;4.698;2022-10-16T05:38:50;3.40;;;1.57;;
8849;SDS011;5638;50.860;4.698;2022-10-16T05:41:16;3.57;;;1.60;;
8849;SDS011;5638;50.860;4.698;2022-10-16T05:43:49;4.57;;;1.53;;
8849;SDS011;5638;50.860;4.698;2022-10-16T05:46:15;4.00;;;1.40;;
8849;SDS011;5638;50.860;4.698;2022-10-16T05:48:42;2.67;;;1.40;;
8849;SDS011;5638;50.860;4.698;2022-10-16T05:51:12;4.03;;;1.87;;
8849;SDS011;5638;50.860;4.698;2022-10-16T05:53:40;4.67;;;1.50;;
8849;SDS011;5638;50.860;4.698;2022-10-16T05:56:06;3.43;;;1.70;;
8849;SDS011;5638;50.860;4.698;2022-10-16T05:58:36;3.73;;;1.60;;
8849;SDS011;5638;50.860;4.698;2022-10-16T06:01:15;3.93;;;1.60;;
8849;SDS011;5638;50.860;4.698;2022-10-16T06:03:43;2.33;;;1.70;;
8849;SDS011;5638;50.860;4.698;2022-10-16T06:06:16;2.47;;;1.60;;
8849;SDS011;5638;50.860;4.698;2022-10-16T06:08:45;2.93;;;1.43;;
8849;SDS011;5638;50.860;4.698;2022-10-16T06:11:14;2.13;;;1.40;;
8849;SDS011;5638;50.860;4.698;2022-10-16T06:13:49;2.40;;;1.63;;
8849;SDS011;5638;50.860;4.698;2022-10-16T06:16:22;2.57;;;1.50;;
8849;SDS011;5638;50.860;4.698;2022-10-16T06:18:53;2.07;;;1.80;;
8849;SDS011;5638;50.860;4.698;2022-10-16T06:21:24;1.97;;;1.53;;
8849;SDS011;5638;50.860;4.698;2022-10-16T06:23:52;4.60;;;1.70;;
8849;SDS011;5638;50.860;4.698;2022-10-16T06:26:22;2.07;;;1.40;;
8849;SDS011;5638;50.860;4.698;2022-10-16T06:28:50;3.13;;;1.47;;
8849;SDS011;5638;50.860;4.698;2022-10-16T06:31:16;2.70;;;1.87;;
8849;SDS011;5638;50.860;4.698;2022-10-16T06:33:43;3.23;;;1.80;;
8849;SDS011;5638;50.860;4.698;2022-10-16T06:36:11;2.63;;;1.67;;
8849;SDS011;5638;50.860;4.698;2022-10-16T06:38:40;2.47;;;1.40;;
8849;SDS011;5638;50.860;4.698;2022-10-16T06:41:07;3.30;;;1.60;;
8849;SDS011;5638;50.860;4.698;2022-10-16T06:43:38;1.93;;;1.70;;
8849;SDS011;5638;50.860;4.698;2022-10-16T06:46:05;2.37;;;1.57;;
8849;SDS011;5638;50.860;4.698;2022-10-16T06:48:34;3.53;;;1.60;;
8849;SDS011;5638;50.860;4.698;2022-10-16T06:51:11;1.80;;;1.67;;
8849;SDS011;5638;50.860;4.698;2022-10-16T06:53:51;2.73;;;1.80;;
8849;SDS011;5638;50.860;4.698;2022-10-16T06:56:23;2.43;;;1.50;;
8849;SDS011;5638;50.860;4.698;2022-10-16T06:58:51;2.70;;;1.67;;
8849;SDS011;5638;50.860;4.698;2022-10-16T07:01:19;3.07;;;1.97;;
8849;SDS011;5638;50.860;4.698;2022-10-16T07:03:48;5.03;;;1.80;;
8849;SDS011;5638;50.860;4.698;2022-10-16T07:06:17;1.93;;;1.60;;
8849;SDS011;5638;50.860;4.698;2022-10-16T07:08:45;2.80;;;2.00;;
8849;SDS011;5638;50.860;4.698;2022-10-16T07:11:13;2.53;;;2.00;;
8849;SDS011;5638;50.860;4.698;2022-10-16T07:13:46;5.00;;;1.80;;
8849;SDS011;5638;50.860;4.698;2022-10-16T07:16:14;3.20;;;1.60;;
8849;SDS011;5638;50.860;4.698;2022-10-16T07:18:42;3.00;;;1.70;;
8849;SDS011;5638;50.860;4.698;2022-10-16T07:23:39;2.40;;;1.93;;
8849;SDS011;5638;50.860;4.698;2022-10-16T07:26:05;6.40;;;2.03;;
8849;SDS011;5638;50.860;4.698;2022-10-16T07:28:32;3.23;;;2.00;;
8849;SDS011;5638;50.860;4.698;2022-10-16T07:31:03;2.93;;;1.60;;
8849;SDS011;5638;50.860;4.698;2022-10-16T07:33:32;3.07;;;2.20;;
8849;SDS011;5638;50.860;4.698;2022-10-16T07:36:00;2.70;;;1.90;;
8849;SDS011;5638;50.860;4.698;2022-10-16T07:38:26;3.03;;;1.60;;
8849;SDS011;5638;50.860;4.698;2022-10-16T07:40:59;2.43;;;1.80;;
8849;SDS011;5638;50.860;4.698;2022-10-16T07:43:28;4.57;;;1.70;;
8849;SDS011;5638;50.860;4.698;2022-10-16T07:45:55;2.20;;;1.70;;
8849;SDS011;5638;50.860;4.698;2022-10-16T07:48:21;3.60;;;1.70;;
8849;SDS011;5638;50.860;4.698;2022-10-16T07:50:49;1.93;;;1.80;;
8849;SDS011;5638;50.860;4.698;2022-10-16T07:53:15;3.10;;;1.60;;
8849;SDS011;5638;50.860;4.698;2022-10-16T07:55:41;6.27;;;1.93;;
8849;SDS011;5638;50.860;4.698;2022-10-16T07:58:08;3.10;;;1.93;;
8849;SDS011;5638;50.860;4.698;2022-10-16T08:00:35;2.90;;;1.83;;
8849;SDS011;5638;50.860;4.698;2022-10-16T08:03:02;6.53;;;1.80;;
8849;SDS011;5638;50.860;4.698;2022-10-16T08:05:30;2.67;;;1.80;;
8849;SDS011;5638;50.860;4.698;2022-10-16T08:07:58;4.40;;;1.77;;
8849;SDS011;5638;50.860;4.698;2022-10-16T08:10:25;3.37;;;1.70;;
8849;SDS011;5638;50.860;4.698;2022-10-16T08:12:53;5.30;;;1.60;;
8849;SDS011;5638;50.860;4.698;2022-10-16T08:15:19;2.00;;;1.70;;
8849;SDS011;5638;50.860;4.698;2022-10-16T08:17:56;2.07;;;1.40;;
8849;SDS011;5638;50.860;4.698;2022-10-16T08:20:25;3.27;;;1.47;;
8849;SDS011;5638;50.860;4.698;2022-10-16T08:22:52;2.07;;;1.53;;
8849;SDS011;5638;50.860;4.698;2022-10-16T08:25:19;1.77;;;1.40;;
8849;SDS011;5638;50.860;4.698;2022-10-16T08:27:47;1.77;;;1.40;;
8849;SDS011;5638;50.860;4.698;2022-10-16T08:30:12;3.93;;;1.70;;
8849;SDS011;5638;50.860;4.698;2022-10-16T08:32:39;1.43;;;1.30;;
8849;SDS011;5638;50.860;4.698;2022-10-16T08:35:09;2.20;;;1.30;;
8849;SDS011;5638;50.860;4.698;2022-10-16T08:37:37;2.37;;;1.30;;
8849;SDS011;5638;50.860;4.698;2022-10-16T08:40:05;7.70;;;1.50;;
8849;SDS011;5638;50.860;4.698;2022-10-16T08:42:47;1.50;;;1.37;;
8849;SDS011;5638;50.860;4.698;2022-10-16T08:45:42;1.90;;;1.40;;
8849;SDS011;5638;50.860;4.698;2022-10-16T08:48:45;3.63;;;1.40;;
8849;SDS011;5638;50.860;4.698;2022-10-16T08:51:12;3.50;;;1.80;;
8849;SDS011;5638;50.860;4.698;2022-10-16T08:54:04;3.17;;;1.47;;
8849;SDS011;5638;50.860;4.698;2022-10-16T08:57:00;1.90;;;1.40;;
8849;SDS011;5638;50.860;4.698;2022-10-16T08:59:46;1.87;;;1.30;;
8849;SDS011;5638;50.860;4.698;2022-10-16T09:02:27;2.03;;;1.13;;
8849;SDS011;5638;50.860;4.698;2022-10-16T09:11:22;3.67;;;1.50;;
8849;SDS011;5638;50.860;4.698;2022-10-16T09:17:17;5.30;;;1.53;;
8849;SDS011;5638;50.860;4.698;2022-10-16T09:22:39;4.53;;;1.40;;
8849;SDS011;5638;50.860;4.698;2022-10-16T09:25:13;5.53;;;1.33;;
8849;SDS011;5638;50.860;4.698;2022-10-16T09:27:47;2.43;;;1.20;;
8849;SDS011;5638;50.860;4.698;2022-10-16T09:30:20;1.70;;;1.07;;
8849;SDS011;5638;50.860;4.698;2022-10-16T09:32:48;3.60;;;1.20;;
8849;SDS011;5638;50.860;4.698;2022-10-16T09:35:21;3.47;;;1.27;;
8849;SDS011;5638;50.860;4.698;2022-10-16T09:37:56;3.07;;;1.20;;
8849;SDS011;5638;50.860;4.698;2022-10-16T09:40:26;5.00;;;1.57;;
8849;SDS011;5638;50.860;4.698;2022-10-16T09:43:00;2.27;;;1.20;;
8849;SDS011;5638;50.860;4.698;2022-10-16T09:48:33;3.77;;;1.40;;
8849;SDS011;5638;50.860;4.698;2022-10-16T09:56:38;1.30;;;1.20;;
8849;SDS011;5638;50.860;4.698;2022-10-16T09:59:08;2.10;;;0.90;;
8849;SDS011;5638;50.860;4.698;2022-10-16T10:01:40;1.97;;;1.00;;
8849;SDS011;5638;50.860;4.698;2022-10-16T10:04:07;2.97;;;1.20;;
8849;SDS011;5638;50.860;4.698;2022-10-16T10:06:36;3.30;;;1.37;;
8849;SDS011;5638;50.860;4.698;2022-10-16T10:11:54;2.70;;;1.33;;
8849;SDS011;5638;50.860;4.698;2022-10-16T10:14:34;2.33;;;1.23;;
8849;SDS011;5638;50.860;4.698;2022-10-16T10:27:47;1.97;;;1.13;;
8849;SDS011;5638;50.860;4.698;2022-10-16T10:44:03;2.03;;;1.17;;
8849;SDS011;5638;50.860;4.698;2022-10-16T10:53:04;3.23;;;1.20;;
8849;SDS011;5638;50.860;4.698;2022-10-16T10:56:12;1.00;;;0.90;;
8849;SDS011;5638;50.860;4.698;2022-10-16T11:07:59;2.73;;;1.27;;
8849;SDS011;5638;50.860;4.698;2022-10-16T11:10:54;2.40;;;1.23;;
8849;SDS011;5638;50.860;4.698;2022-10-16T11:16:10;1.10;;;0.90;;
8849;SDS011;5638;50.860;4.698;2022-10-16T11:21:18;4.33;;;1.40;;
8849;SDS011;5638;50.860;4.698;2022-10-16T11:26:27;5.10;;;1.30;;
8849;SDS011;5638;50.860;4.698;2022-10-16T11:28:59;3.60;;;1.17;;
8849;SDS011;5638;50.860;4.698;2022-10-16T11:31:37;1.63;;;1.27;;
8849;SDS011;5638;50.860;4.698;2022-10-16T11:37:09;1.33;;;1.10;;
8849;SDS011;5638;50.860;4.698;2022-10-16T11:39:44;1.00;;;0.90;;
8849;SDS011;5638;50.860;4.698;2022-10-16T11:47:58;2.77;;;1.23;;
8849;SDS011;5638;50.860;4.698;2022-10-16T11:50:54;1.17;;;1.07;;
8849;SDS011;5638;50.860;4.698;2022-10-16T11:53:35;3.03;;;1.47;;
8849;SDS011;5638;50.860;4.698;2022-10-16T11:56:06;1.10;;;0.90;;
8849;SDS011;5638;50.860;4.698;2022-10-16T11:58:33;1.50;;;1.00;;
8849;SDS011;5638;50.860;4.698;2022-10-16T12:06:49;1.53;;;1.07;;
8849;SDS011;5638;50.860;4.698;2022-10-16T12:09:38;1.67;;;1.27;;
8849;SDS011;5638;50.860;4.698;2022-10-16T12:15:24;4.00;;;1.23;;
8849;SDS011;5638;50.860;4.698;2022-10-16T12:17:57;1.10;;;1.00;;
8849;SDS011;5638;50.860;4.698;2022-10-16T12:20:28;2.63;;;1.03;;
8849;SDS011;5638;50.860;4.698;2022-10-16T12:23:01;3.50;;;1.03;;
8849;SDS011;5638;50.860;4.698;2022-10-16T12:25:31;4.30;;;1.30;;
8849;SDS011;5638;50.860;4.698;2022-10-16T12:30:57;2.90;;;1.20;;
8849;SDS011;5638;50.860;4.698;2022-10-16T12:33:37;1.93;;;1.00;;
8849;SDS011;5638;50.860;4.698;2022-10-16T12:36:15;1.87;;;1.00;;
8849;SDS011;5638;50.860;4.698;2022-10-16T12:38:54;4.03;;;1.17;;
8849;SDS011;5638;50.860;4.698;2022-10-16T12:41:24;1.73;;;0.93;;
8849;SDS011;5638;50.860;4.698;2022-10-16T12:44:00;2.13;;;1.00;;
8849;SDS011;5638;50.860;4.698;2022-10-16T12:49:17;2.67;;;1.33;;
8849;SDS011;5638;50.860;4.698;2022-10-16T12:51:57;1.67;;;1.10;;
8849;SDS011;5638;50.860;4.698;2022-10-16T12:54:28;5.33;;;1.10;;
8849;SDS011;5638;50.860;4.698;2022-10-16T12:59:59;2.40;;;1.00;;
8849;SDS011;5638;50.860;4.698;2022-10-16T13:14:31;1.63;;;1.20;;
8849;SDS011;5638;50.860;4.698;2022-10-16T13:23:18;4.90;;;1.30;;
8849;SDS011;5638;50.860;4.698;2022-10-16T13:29:15;1.17;;;0.80;;
8849;SDS011;5638;50.860;4.698;2022-10-16T13:31:41;2.13;;;1.03;;
8849;SDS011;5638;50.860;4.698;2022-10-16T13:34:13;1.63;;;1.07;;
8849;SDS011;5638;50.860;4.698;2022-10-16T13:36:48;3.50;;;1.30;;
8849;SDS011;5638;50.860;4.698;2022-10-16T13:39:24;2.80;;;1.00;;
8849;SDS011;5638;50.860;4.698;2022-10-16T13:42:03;1.93;;;1.27;;
8849;SDS011;5638;50.860;4.698;2022-10-16T13:44:36;2.57;;;1.57;;
8849;SDS011;5638;50.860;4.698;2022-10-16T13:47:30;2.27;;;1.30;;
8849;SDS011;5638;50.860;4.698;2022-10-16T13:49:59;2.20;;;1.47;;
8849;SDS011;5638;50.860;4.698;2022-10-16T13:52:26;1.73;;;1.20;;
8849;SDS011;5638;50.860;4.698;2022-10-16T13:54:53;2.53;;;1.13;;
8849;SDS011;5638;50.860;4.698;2022-10-16T13:57:21;1.80;;;1.20;;
8849;SDS011;5638;50.860;4.698;2022-10-16T13:59:49;1.90;;;1.10;;
8849;SDS011;5638;50.860;4.698;2022-10-16T14:05:07;3.10;;;1.23;;
8849;SDS011;5638;50.860;4.698;2022-10-16T14:07:35;2.27;;;1.20;;
8849;SDS011;5638;50.860;4.698;2022-10-16T14:10:04;1.67;;;1.00;;
8849;SDS011;5638;50.860;4.698;2022-10-16T14:12:45;1.63;;;0.90;;
8849;SDS011;5638;50.860;4.698;2022-10-16T14:15:21;3.17;;;1.27;;
8849;SDS011;5638;50.860;4.698;2022-10-16T14:17:49;1.20;;;0.80;;
8849;SDS011;5638;50.860;4.698;2022-10-16T14:20:17;5.07;;;1.13;;
8849;SDS011;5638;50.860;4.698;2022-10-16T14:22:48;2.20;;;1.00;;
8849;SDS011;5638;50.860;4.698;2022-10-16T14:25:30;2.30;;;1.10;;
8849;SDS011;5638;50.860;4.698;2022-10-16T14:27:59;2.30;;;1.00;;
8849;SDS011;5638;50.860;4.698;2022-10-16T14:30:55;1.73;;;1.20;;
8849;SDS011;5638;50.860;4.698;2022-10-16T14:33:24;2.47;;;1.13;;
8849;SDS011;5638;50.860;4.698;2022-10-16T14:36:00;2.30;;;1.10;;
8849;SDS011;5638;50.860;4.698;2022-10-16T14:38:41;2.90;;;1.10;;
8849;SDS011;5638;50.860;4.698;2022-10-16T14:41:15;3.33;;;1.00;;
8849;SDS011;5638;50.860;4.698;2022-10-16T14:43:49;0.90;;;0.80;;
8849;SDS011;5638;50.860;4.698;2022-10-16T14:46:21;2.43;;;1.13;;
8849;SDS011;5638;50.860;4.698;2022-10-16T14:48:58;1.77;;;0.90;;
8849;SDS011;5638;50.860;4.698;2022-10-16T14:51:47;2.03;;;0.97;;
8849;SDS011;5638;50.860;4.698;2022-10-16T14:54:13;5.17;;;1.00;;
8849;SDS011;5638;50.860;4.698;2022-10-16T14:59:14;3.13;;;1.10;;
8849;SDS011;5638;50.860;4.698;2022-10-16T15:01:54;1.70;;;1.10;;
8849;SDS011;5638;50.860;4.698;2022-10-16T15:04:20;1.93;;;1.00;;
8849;SDS011;5638;50.860;4.698;2022-10-16T15:06:46;2.10;;;1.03;;
8849;SDS011;5638;50.860;4.698;2022-10-16T15:09:11;1.73;;;0.90;;
8849;SDS011;5638;50.860;4.698;2022-10-16T15:11:37;2.00;;;0.90;;
8849;SDS011;5638;50.860;4.698;2022-10-16T15:14:04;1.00;;;0.90;;
8849;SDS011;5638;50.860;4.698;2022-10-16T15:16:31;1.10;;;0.90;;
8849;SDS011;5638;50.860;4.698;2022-10-16T15:18:57;1.23;;;1.03;;
8849;SDS011;5638;50.860;4.698;2022-10-16T15:21:30;2.53;;;1.60;;
8849;SDS011;5638;50.860;4.698;2022-10-16T15:23:58;4.67;;;1.10;;
8849;SDS011;5638;50.860;4.698;2022-10-16T15:26:26;1.47;;;0.83;;
8849;SDS011;5638;50.860;4.698;2022-10-16T15:28:54;2.80;;;0.90;;
8849;SDS011;5638;50.860;4.698;2022-10-16T15:31:23;2.93;;;1.50;;
8849;SDS011;5638;50.860;4.698;2022-10-16T15:33:55;1.33;;;1.10;;
8849;SDS011;5638;50.860;4.698;2022-10-16T15:36:30;3.53;;;1.30;;
8849;SDS011;5638;50.860;4.698;2022-10-16T15:39:05;1.43;;;0.90;;
8849;SDS011;5638;50.860;4.698;2022-10-16T15:41:38;2.03;;;1.00;;
8849;SDS011;5638;50.860;4.698;2022-10-16T15:44:08;2.40;;;1.27;;
8849;SDS011;5638;50.860;4.698;2022-10-16T15:46:34;2.00;;;1.20;;
8849;SDS011;5638;50.860;4.698;2022-10-16T15:49:01;2.80;;;1.43;;
8849;SDS011;5638;50.860;4.698;2022-10-16T15:51:27;5.03;;;1.23;;
8849;SDS011;5638;50.860;4.698;2022-10-16T15:53:55;2.53;;;1.30;;
8849;SDS011;5638;50.860;4.698;2022-10-16T15:56:22;1.50;;;1.00;;
8849;SDS011;5638;50.860;4.698;2022-10-16T15:58:50;1.27;;;1.10;;
8849;SDS011;5638;50.860;4.698;2022-10-16T16:01:18;1.80;;;1.30;;
8849;SDS011;5638;50.860;4.698;2022-10-16T16:03:44;2.37;;;1.53;;
8849;SDS011;5638;50.860;4.698;2022-10-16T16:06:11;2.53;;;1.23;;
8849;SDS011;5638;50.860;4.698;2022-10-16T16:08:39;2.30;;;1.40;;
8849;SDS011;5638;50.860;4.698;2022-10-16T16:11:06;2.60;;;1.37;;
8849;SDS011;5638;50.860;4.698;2022-10-16T16:13:37;1.97;;;1.40;;
8849;SDS011;5638;50.860;4.698;2022-10-16T16:16:11;1.93;;;1.30;;
8849;SDS011;5638;50.860;4.698;2022-10-16T16:18:40;1.93;;;1.33;;
8849;SDS011;5638;50.860;4.698;2022-10-16T16:21:08;1.70;;;1.10;;
8849;SDS011;5638;50.860;4.698;2022-10-16T16:23:37;1.67;;;1.23;;
8849;SDS011;5638;50.860;4.698;2022-10-16T16:28:35;2.97;;;1.47;;
8849;SDS011;5638;50.860;4.698;2022-10-16T16:31:02;3.03;;;1.40;;
8849;SDS011;5638;50.860;4.698;2022-10-16T16:33:29;2.80;;;1.40;;
8849;SDS011;5638;50.860;4.698;2022-10-16T16:36:00;2.00;;;1.30;;
8849;SDS011;5638;50.860;4.698;2022-10-16T16:38:31;2.27;;;1.40;;
8849;SDS011;5638;50.860;4.698;2022-10-16T16:40:58;1.27;;;1.10;;
8849;SDS011;5638;50.860;4.698;2022-10-16T16:43:25;2.20;;;1.10;;
8849;SDS011;5638;50.860;4.698;2022-10-16T16:45:52;2.43;;;1.27;;
8849;SDS011;5638;50.860;4.698;2022-10-16T16:48:22;2.37;;;1.53;;
8849;SDS011;5638;50.860;4.698;2022-10-16T16:50:48;1.43;;;1.20;;
8849;SDS011;5638;50.860;4.698;2022-10-16T16:53:14;2.50;;;1.30;;
8849;SDS011;5638;50.860;4.698;2022-10-16T16:55:40;1.77;;;1.43;;
8849;SDS011;5638;50.860;4.698;2022-10-16T16:58:06;4.90;;;1.50;;
8849;SDS011;5638;50.860;4.698;2022-10-16T17:00:32;3.67;;;1.90;;
8849;SDS011;5638;50.860;4.698;2022-10-16T17:02:58;3.20;;;1.70;;
8849;SDS011;5638;50.860;4.698;2022-10-16T17:05:24;4.57;;;2.40;;
8849;SDS011;5638;50.860;4.698;2022-10-16T17:07:50;2.50;;;2.10;;
8849;SDS011;5638;50.860;4.698;2022-10-16T17:10:16;2.07;;;1.70;;
8849;SDS011;5638;50.860;4.698;2022-10-16T17:12:42;7.03;;;3.20;;
8849;SDS011;5638;50.860;4.698;2022-10-16T17:15:08;8.27;;;2.73;;
8849;SDS011;5638;50.860;4.698;2022-10-16T17:17:34;3.90;;;2.37;;
8849;SDS011;5638;50.860;4.698;2022-10-16T17:20:00;4.43;;;2.50;;
8849;SDS011;5638;50.860;4.698;2022-10-16T17:22:26;5.57;;;2.60;;
8849;SDS011;5638;50.860;4.698;2022-10-16T17:24:52;8.53;;;3.13;;
8849;SDS011;5638;50.860;4.698;2022-10-16T17:27:19;7.27;;;2.90;;
8849;SDS011;5638;50.860;4.698;2022-10-16T17:29:45;5.37;;;2.40;;
8849;SDS011;5638;50.860;4.698;2022-10-16T17:32:16;4.27;;;2.10;;
8849;SDS011;5638;50.860;4.698;2022-10-16T17:34:42;5.53;;;2.63;;
8849;SDS011;5638;50.860;4.698;2022-10-16T17:37:11;4.63;;;2.97;;
8849;SDS011;5638;50.860;4.698;2022-10-16T17:39:37;6.57;;;3.10;;
8849;SDS011;5638;50.860;4.698;2022-10-16T17:42:03;5.23;;;3.10;;
8849;SDS011;5638;50.860;4.698;2022-10-16T17:44:29;3.77;;;2.70;;
8849;SDS011;5638;50.860;4.698;2022-10-16T17:46:54;4.63;;;2.90;;
8849;SDS011;5638;50.860;4.698;2022-10-16T17:49:20;3.77;;;3.03;;
8849;SDS011;5638;50.860;4.698;2022-10-16T17:51:50;5.03;;;2.83;;
8849;SDS011;5638;50.860;4.698;2022-10-16T17:54:18;4.23;;;2.50;;
8849;SDS011;5638;50.860;4.698;2022-10-16T17:56:44;6.40;;;2.67;;
8849;SDS011;5638;50.860;4.698;2022-10-16T17:59:12;4.80;;;3.10;;
8849;SDS011;5638;50.860;4.698;2022-10-16T18:01:39;8.00;;;2.90;;
8849;SDS011;5638;50.860;4.698;2022-10-16T18:04:08;5.97;;;2.70;;
8849;SDS011;5638;50.860;4.698;2022-10-16T18:06:39;5.37;;;3.00;;
8849;SDS011;5638;50.860;4.698;2022-10-16T18:09:08;3.60;;;2.60;;
8849;SDS011;5638;50.860;4.698;2022-10-16T18:11:36;3.77;;;2.87;;